createdAt,value
2022-10-18T00:00:03.787Z,92.3
2022-10-18T00:01:03.787Z,92.3
2022-10-18T00:02:04.030Z,92.3
2022-10-18T00:03:03.805Z,92.4
2022-10-18T00:04:03.813Z,92.4
2022-10-18T00:05:03.818Z,92.4
2022-10-18T00:06:03.836Z,92.3
2022-10-18T00:07:03.851Z,92.3
2022-10-18T00:08:03.849Z,92.4
2022-10-18T00:09:03.860Z,92.4
2022-10-18T00:10:03.865Z,92.4
2022-10-18T00:11:03.871Z,92.5
2022-10-18T00:12:03.877Z,92.5
2022-10-18T00:13:03.899Z,92.5
2022-10-18T00:14:03.891Z,92.5
2022-10-18T00:15:03.909Z,92.5
2022-10-18T00:16:03.911Z,92.5
2022-10-18T00:17:03.924Z,92.4
2022-10-18T00:18:03.920Z,92.5
2022-10-18T00:19:03.943Z,92.4
2022-10-18T00:20:03.942Z,92.5
2022-10-18T00:21:03.946Z,92.5
2022-10-18T00:22:03.991Z,92.5
2022-10-18T00:23:03.966Z,92.4
2022-10-18T00:24:03.972Z,92.4
2022-10-18T00:25:03.989Z,92.3
2022-10-18T00:26:03.995Z,92.3
2022-10-18T00:27:04.002Z,92.3
2022-10-18T00:28:04.009Z,92.4
2022-10-18T00:29:04.261Z,92.3
2022-10-18T00:30:04.039Z,92.4
2022-10-18T00:31:04.043Z,92.4
2022-10-18T00:32:04.052Z,92.5
2022-10-18T00:33:04.064Z,92.5
2022-10-18T00:34:04.068Z,92.5
2022-10-18T00:35:04.076Z,92.5
2022-10-18T00:36:04.079Z,92.6
2022-10-18T00:37:04.091Z,92.5
2022-10-18T00:38:04.105Z,92.6
2022-10-18T00:39:04.120Z,92.6
2022-10-18T00:40:04.152Z,92.6
2022-10-18T00:41:04.139Z,92.7
2022-10-18T00:42:04.141Z,92.7
2022-10-18T01:00:04.638Z,92.8
2022-10-18T01:01:04.292Z,92.7
2022-10-18T01:02:04.586Z,92.7
2022-10-18T01:03:04.300Z,92.6
2022-10-18T01:04:04.305Z,92.6
2022-10-18T01:05:04.320Z,92.6
2022-10-18T01:06:04.330Z,92.5
2022-10-18T01:07:04.344Z,92.5
2022-10-18T01:08:04.337Z,92.5
2022-10-18T01:09:04.345Z,92.5
2022-10-18T01:10:04.355Z,92.6
2022-10-18T01:11:04.362Z,92.7
2022-10-18T01:12:04.367Z,92.8
2022-10-18T01:13:04.369Z,92.8
2022-10-18T01:14:04.380Z,92.9
2022-10-18T01:15:04.382Z,92.9
2022-10-18T01:16:04.390Z,92.8
2022-10-18T01:17:04.398Z,92.8
2022-10-18T01:18:04.422Z,92.7
2022-10-18T01:19:04.410Z,92.7
2022-10-18T01:20:04.426Z,92.6
2022-10-18T01:21:04.427Z,92.6
2022-10-18T01:22:04.432Z,92.6
2022-10-18T01:23:04.449Z,92.6
2022-10-18T01:24:04.452Z,92.6
2022-10-18T01:25:04.511Z,92.7
2022-10-18T01:26:04.476Z,92.7
2022-10-18T01:27:04.489Z,92.7
2022-10-18T01:28:04.491Z,92.8
2022-10-18T01:29:04.749Z,92.8
2022-10-18T01:30:04.523Z,92.9
2022-10-18T01:31:04.518Z,92.9
2022-10-18T01:32:04.529Z,93.0
2022-10-18T01:33:04.535Z,93.0
2022-10-18T01:34:04.564Z,93.0
2022-10-18T01:35:04.569Z,93.0
2022-10-18T01:36:04.558Z,93.0
2022-10-18T01:37:04.566Z,93.0
2022-10-18T01:38:04.576Z,93.0
2022-10-18T01:39:04.585Z,93.0
2022-10-18T01:40:04.595Z,93.0
2022-10-18T01:41:04.599Z,93.0
2022-10-18T01:42:04.608Z,92.9
2022-10-18T01:43:04.617Z,92.9
2022-10-18T01:44:04.626Z,92.9
2022-10-18T01:45:04.638Z,92.9
2022-10-18T01:46:04.642Z,92.9
2022-10-18T01:47:04.661Z,93.0
2022-10-18T01:48:04.670Z,93.0
2022-10-18T01:49:04.685Z,93.0
2022-10-18T01:50:04.727Z,92.9
2022-10-18T01:51:04.689Z,92.9
2022-10-18T01:52:04.904Z,92.8
2022-10-18T01:53:04.713Z,92.6
2022-10-18T01:54:04.717Z,92.5
2022-10-18T01:55:04.784Z,92.5
2022-10-18T01:56:04.736Z,92.4
2022-10-18T01:57:04.751Z,92.4
2022-10-18T01:58:04.753Z,92.4
2022-10-18T01:59:04.773Z,92.4
2022-10-18T02:00:04.766Z,92.5
2022-10-18T02:01:04.900Z,92.5
2022-10-18T02:02:04.777Z,92.6
2022-10-18T02:03:04.791Z,92.7
2022-10-18T02:04:04.795Z,92.7
2022-10-18T02:05:04.834Z,92.7
2022-10-18T02:06:04.810Z,92.7
2022-10-18T02:07:04.808Z,92.7
2022-10-18T02:08:23.844Z,92.7
2022-10-18T02:09:04.839Z,92.7
2022-10-18T02:10:05.062Z,92.7
2022-10-18T02:11:04.862Z,92.7
2022-10-18T02:12:04.865Z,92.8
2022-10-18T02:13:04.904Z,92.7
2022-10-18T02:14:04.891Z,92.7
2022-10-18T02:15:04.893Z,92.6
2022-10-18T02:16:04.900Z,92.6
2022-10-18T02:17:04.905Z,92.6
2022-10-18T02:18:04.916Z,92.7
2022-10-18T02:19:04.918Z,92.7
2022-10-18T02:20:04.934Z,92.6
2022-10-18T02:21:04.939Z,92.5
2022-10-18T02:22:04.954Z,92.4
2022-10-18T02:23:04.959Z,92.3
2022-10-18T02:24:04.967Z,92.3
2022-10-18T02:25:04.986Z,92.3
2022-10-18T02:26:04.988Z,92.3
2022-10-18T02:27:04.995Z,92.3
2022-10-18T02:28:05.007Z,92.3
2022-10-18T02:29:05.016Z,92.3
2022-10-18T02:30:05.030Z,92.3
2022-10-18T02:31:05.048Z,92.4
2022-10-18T02:32:05.042Z,92.3
2022-10-18T02:33:05.054Z,92.4
2022-10-18T02:34:05.059Z,92.5
2022-10-18T02:35:05.074Z,92.5
2022-10-18T02:36:05.088Z,92.5
2022-10-18T02:37:05.088Z,92.6
2022-10-18T02:38:05.099Z,92.6
2022-10-18T02:39:05.117Z,92.6
2022-10-18T02:40:05.173Z,92.7
2022-10-18T02:41:05.131Z,92.8
2022-10-18T02:42:05.136Z,92.8
2022-10-18T02:43:05.153Z,92.7
2022-10-18T02:44:05.153Z,92.8
2022-10-18T02:45:05.180Z,92.8
2022-10-18T02:46:05.188Z,92.8
2022-10-18T02:47:05.219Z,92.9
2022-10-18T02:48:05.215Z,93.0
2022-10-18T02:49:05.200Z,93.1
2022-10-18T02:50:05.204Z,93.1
2022-10-18T02:51:05.230Z,93.1
2022-10-18T02:52:05.223Z,93.1
2022-10-18T02:53:05.237Z,93.1
2022-10-18T02:54:05.244Z,93.1
2022-10-18T02:55:05.258Z,93.0
2022-10-18T02:56:05.282Z,93.0
2022-10-18T02:57:05.270Z,93.0
2022-10-18T02:58:05.280Z,93.0
2022-10-18T02:59:05.298Z,93.0
2022-10-18T03:00:05.297Z,93.1
2022-10-18T03:01:05.302Z,93.1
2022-10-18T03:02:05.331Z,93.1
2022-10-18T03:03:05.331Z,93.1
2022-10-18T03:04:05.335Z,93.1
2022-10-18T03:05:05.338Z,93.0
2022-10-18T03:06:05.355Z,93.1
2022-10-18T03:07:05.357Z,93.0
2022-10-18T03:08:05.362Z,93.0
2022-10-18T03:09:05.371Z,93.0
2022-10-18T03:10:05.388Z,92.9
2022-10-18T03:11:05.393Z,92.8
2022-10-18T03:12:05.412Z,92.8
2022-10-18T03:13:05.414Z,92.8
2022-10-18T03:14:05.423Z,92.7
2022-10-18T03:15:05.428Z,92.7
2022-10-18T03:16:05.433Z,92.7
2022-10-18T03:17:05.451Z,92.7
2022-10-18T03:18:05.458Z,92.6
2022-10-18T03:19:05.466Z,92.7
2022-10-18T03:20:05.473Z,92.6
2022-10-18T03:21:05.479Z,92.7
2022-10-18T03:22:05.487Z,92.6
2022-10-18T03:23:05.512Z,92.6
2022-10-18T03:24:05.506Z,92.6
2022-10-18T03:25:05.514Z,92.7
2022-10-18T03:26:05.520Z,92.7
2022-10-18T03:27:05.528Z,92.7
2022-10-18T03:28:05.537Z,92.7
2022-10-18T03:29:05.766Z,92.7
2022-10-18T03:30:05.562Z,92.8
2022-10-18T03:31:05.579Z,92.8
2022-10-18T03:32:05.597Z,92.7
2022-10-18T03:33:05.587Z,92.7
2022-10-18T03:34:05.592Z,92.7
2022-10-18T03:35:05.600Z,92.7
2022-10-18T03:36:05.608Z,92.8
2022-10-18T03:37:05.733Z,92.8
2022-10-18T03:38:05.616Z,92.8
2022-10-18T03:39:05.624Z,92.9
2022-10-18T03:40:05.642Z,93.0
2022-10-18T03:41:05.656Z,93.0
2022-10-18T03:42:05.655Z,93.1
2022-10-18T03:43:05.671Z,93.1
2022-10-18T03:44:05.686Z,93.1
2022-10-18T03:45:05.699Z,93.1
2022-10-18T03:46:05.702Z,93.1
2022-10-18T03:47:05.727Z,93.1
2022-10-18T03:48:05.746Z,93.1
2022-10-18T03:49:05.735Z,93.2
2022-10-18T03:50:05.754Z,93.2
2022-10-18T03:51:05.753Z,93.2
2022-10-18T03:52:05.769Z,93.2
2022-10-18T03:53:05.783Z,93.2
2022-10-18T03:54:05.796Z,93.1
2022-10-18T03:55:05.790Z,93.1
2022-10-18T03:56:05.803Z,93.1
2022-10-18T03:57:05.813Z,93.1
2022-10-18T03:58:05.832Z,93.1
2022-10-18T03:59:05.842Z,93.1
2022-10-18T04:00:05.847Z,93.1
2022-10-18T04:01:05.848Z,93.1
2022-10-18T04:02:06.172Z,93.1
2022-10-18T04:03:05.879Z,93.1
2022-10-18T04:04:05.889Z,93.0
2022-10-18T04:05:05.904Z,92.9
2022-10-18T04:06:05.926Z,92.8
2022-10-18T04:07:05.918Z,92.6
2022-10-18T04:08:05.934Z,92.5
2022-10-18T04:09:10.541Z,92.4
2022-10-18T04:10:05.950Z,92.3
2022-10-18T04:11:05.960Z,92.3
2022-10-18T04:12:05.964Z,92.3
2022-10-18T04:13:05.978Z,92.2
2022-10-18T04:14:05.987Z,92.3
2022-10-18T04:15:05.992Z,92.2
2022-10-18T04:16:05.998Z,92.2
2022-10-18T04:17:06.025Z,92.1
2022-10-18T04:18:06.019Z,92.1
2022-10-18T04:19:06.038Z,92.1
2022-10-18T04:20:06.038Z,92.2
2022-10-18T04:21:06.086Z,92.3
2022-10-18T04:22:06.065Z,92.3
2022-10-18T04:23:06.073Z,92.4
2022-10-18T04:24:06.076Z,92.4
2022-10-18T04:25:06.090Z,92.5
2022-10-18T04:26:06.100Z,92.5
2022-10-18T04:27:06.103Z,92.6
2022-10-18T04:28:06.113Z,92.6
2022-10-18T04:29:06.273Z,92.7
2022-10-18T04:30:06.126Z,92.8
2022-10-18T04:31:06.132Z,92.8
2022-10-18T04:32:06.160Z,92.7
2022-10-18T04:33:06.151Z,92.7
2022-10-18T04:34:06.183Z,92.7
2022-10-18T04:35:06.179Z,92.7
2022-10-18T04:36:06.207Z,92.8
2022-10-18T04:37:06.199Z,92.8
2022-10-18T04:38:06.216Z,92.7
2022-10-18T04:39:06.236Z,92.7
2022-10-18T04:40:06.237Z,92.6
2022-10-18T04:41:06.241Z,92.6
2022-10-18T04:42:06.245Z,92.6
2022-10-18T04:43:06.264Z,92.6
2022-10-18T04:44:06.271Z,92.6
2022-10-18T04:45:06.287Z,92.5
2022-10-18T04:46:06.291Z,92.5
2022-10-18T04:47:06.314Z,92.5
2022-10-18T04:48:06.316Z,92.5
2022-10-18T04:49:06.327Z,92.5
2022-10-18T04:50:06.357Z,92.5
2022-10-18T04:51:06.348Z,92.6
2022-10-18T04:52:06.359Z,92.6
2022-10-18T04:53:06.369Z,92.6
2022-10-18T04:54:06.386Z,92.7
2022-10-18T04:55:06.386Z,92.7
2022-10-18T04:56:06.397Z,92.7
2022-10-18T04:57:06.410Z,92.6
2022-10-18T04:58:06.422Z,92.6
2022-10-18T04:59:06.426Z,92.7
2022-10-18T05:00:06.437Z,92.6
2022-10-18T05:01:06.453Z,92.7
2022-10-18T05:02:06.467Z,92.7
2022-10-18T05:03:06.475Z,92.8
2022-10-18T05:04:06.493Z,92.7
2022-10-18T05:05:14.366Z,92.7
2022-10-18T05:06:06.514Z,92.7
2022-10-18T05:07:06.526Z,92.7
2022-10-18T05:08:06.519Z,92.7
2022-10-18T05:09:06.524Z,92.7
2022-10-18T05:10:06.524Z,92.7
2022-10-18T05:11:06.730Z,92.7
2022-10-18T05:12:06.558Z,92.7
2022-10-18T05:13:06.565Z,92.8
2022-10-18T05:14:06.570Z,92.7
2022-10-18T05:15:06.578Z,92.7
2022-10-18T05:16:06.593Z,92.7
2022-10-18T05:17:06.598Z,92.6
2022-10-18T05:18:06.618Z,92.7
2022-10-18T05:19:06.616Z,92.7
2022-10-18T05:20:06.756Z,92.7
2022-10-18T05:21:06.636Z,92.7
2022-10-18T05:22:06.644Z,92.7
2022-10-18T05:23:06.655Z,92.7
2022-10-18T05:24:06.667Z,92.8
2022-10-18T05:25:06.673Z,92.7
2022-10-18T05:26:06.672Z,92.8
2022-10-18T05:27:06.684Z,92.8
2022-10-18T05:29:07.137Z,92.8
2022-10-18T05:30:06.729Z,92.7
2022-10-18T05:31:06.746Z,92.7
2022-10-18T05:32:06.747Z,92.7
2022-10-18T05:33:06.757Z,92.7
2022-10-18T05:34:06.764Z,92.6
2022-10-18T05:35:06.771Z,92.6
2022-10-18T05:36:06.793Z,92.4
2022-10-18T05:37:06.793Z,92.4
2022-10-18T05:38:06.806Z,92.4
2022-10-18T05:39:06.813Z,92.4
2022-10-18T05:40:06.819Z,92.3
2022-10-18T05:41:06.834Z,92.3
2022-10-18T05:42:06.829Z,92.2
2022-10-18T05:43:06.842Z,92.2
2022-10-18T05:44:06.921Z,92.2
2022-10-18T05:45:06.891Z,92.2
2022-10-18T05:46:15.941Z,92.0
2022-10-18T05:47:06.915Z,92.0
2022-10-18T05:48:06.895Z,92.0
2022-10-18T05:49:06.914Z,92.0
2022-10-18T05:50:06.908Z,92.0
2022-10-18T05:51:06.925Z,92.0
2022-10-18T05:52:06.951Z,92.0
2022-10-18T05:53:36.089Z,91.9
2022-10-18T05:54:06.934Z,91.8
2022-10-18T05:55:06.944Z,91.9
2022-10-18T05:56:07.017Z,91.8
2022-10-18T05:57:06.966Z,91.7
2022-10-18T05:58:06.976Z,91.7
2022-10-18T05:59:07.016Z,91.5
2022-10-18T06:00:07.023Z,91.2
2022-10-18T06:01:07.043Z,91.1
2022-10-18T06:02:07.220Z,91.3
2022-10-18T06:03:07.051Z,91.0
2022-10-18T06:04:07.019Z,90.9
2022-10-18T06:05:07.072Z,91.0
2022-10-18T06:06:07.087Z,90.9
2022-10-18T06:07:07.138Z,90.7
2022-10-18T06:08:10.610Z,90.9
2022-10-18T06:09:07.066Z,90.7
2022-10-18T06:10:07.067Z,90.6
2022-10-18T06:11:07.119Z,90.3
2022-10-18T06:12:07.114Z,90.5
2022-10-18T06:13:07.156Z,90.5
2022-10-18T06:14:07.139Z,90.4
2022-10-18T06:15:07.186Z,90.5
2022-10-18T06:16:07.197Z,90.4
2022-10-18T06:17:07.197Z,90.3
2022-10-18T06:18:07.187Z,90.4
2022-10-18T06:19:07.217Z,90.2
2022-10-18T06:20:07.193Z,90.2
2022-10-18T06:21:07.190Z,90.4
2022-10-18T06:22:07.197Z,90.2
2022-10-18T06:23:07.207Z,89.8
2022-10-18T06:24:07.262Z,90.1
2022-10-18T06:25:07.245Z,90.3
2022-10-18T06:26:07.265Z,90.4
2022-10-18T06:27:07.285Z,90.4
2022-10-18T06:28:12.431Z,90.4
2022-10-18T06:29:07.440Z,90.5
2022-10-18T06:30:07.344Z,90.3
2022-10-18T06:31:07.316Z,90.1
2022-10-18T06:32:07.303Z,90.1
2022-10-18T06:33:07.334Z,90.2
2022-10-18T06:34:07.328Z,90.2
2022-10-18T06:35:07.314Z,90.2
2022-10-18T18:49:32.282Z,72.9
2022-10-18T18:50:31.462Z,72.9
2022-10-18T18:51:31.455Z,73.1
2022-10-18T18:52:32.477Z,73.2
2022-10-18T18:53:31.479Z,73.4
2022-10-18T18:54:31.476Z,73.6
2022-10-18T18:55:31.478Z,73.7
2022-10-18T18:56:31.485Z,73.7
2022-10-18T18:57:32.445Z,73.9
2022-10-18T18:58:31.497Z,73.9
2022-10-18T18:59:31.509Z,74.0
2022-10-18T19:00:31.513Z,74.1
2022-10-18T19:01:31.796Z,74.3
2022-10-18T19:02:31.532Z,73.5
2022-10-18T19:03:31.528Z,74.0
2022-10-18T19:04:31.544Z,73.7
2022-10-18T19:05:31.550Z,73.4
2022-10-18T19:06:31.551Z,73.7
2022-10-18T19:07:32.938Z,73.6
2022-10-18T19:08:31.561Z,73.8
2022-10-18T19:09:31.572Z,73.8
2022-10-18T19:10:31.571Z,73.8
2022-10-18T19:11:31.583Z,74.0
2022-10-18T19:12:31.584Z,74.2
2022-10-18T19:13:31.603Z,74.2
2022-10-18T19:14:31.603Z,74.5
2022-10-18T19:15:31.613Z,74.6
2022-10-18T19:16:31.623Z,74.6
2022-10-18T19:17:32.608Z,74.8
2022-10-18T19:18:31.635Z,75.0
2022-10-18T19:19:31.627Z,75.3
2022-10-18T19:20:31.645Z,75.4
2022-10-18T19:21:31.643Z,75.7
2022-10-18T19:22:31.643Z,75.8
2022-10-18T19:23:31.866Z,75.8
2022-10-18T19:24:31.664Z,76.0
2022-10-18T19:25:31.669Z,76.1
2022-10-18T19:26:31.682Z,76.3
2022-10-18T19:27:32.705Z,76.5
2022-10-18T19:28:31.876Z,76.7
2022-10-18T19:29:31.706Z,77.0
2022-10-18T19:30:31.702Z,77.2
2022-10-18T19:31:31.734Z,77.1
2022-10-18T19:32:31.723Z,77.1
2022-10-18T19:33:59.199Z,77.3
2022-10-18T19:34:31.733Z,77.3
2022-10-18T19:35:31.736Z,77.4
2022-10-18T19:36:31.756Z,77.3
2022-10-18T19:37:33.204Z,77.4
2022-10-18T19:38:31.774Z,77.5
2022-10-18T19:39:31.776Z,77.5
2022-10-18T19:40:31.787Z,77.5
2022-10-18T19:41:31.840Z,77.4
2022-10-18T19:42:32.107Z,77.5
2022-10-18T19:43:31.868Z,77.4
2022-10-18T19:44:31.815Z,77.4
2022-10-18T19:45:31.818Z,77.6
2022-10-18T19:46:31.840Z,77.5
2022-10-18T19:47:31.840Z,77.4
2022-10-18T19:48:31.842Z,77.4
2022-10-18T19:49:31.851Z,77.4
2022-10-18T19:50:31.882Z,77.4
2022-10-18T19:51:31.865Z,77.3
2022-10-18T19:52:33.112Z,77.3
2022-10-18T19:53:31.885Z,77.3
2022-10-18T19:54:31.905Z,77.3
2022-10-18T19:55:31.902Z,77.2
2022-10-18T19:56:31.915Z,76.9
2022-10-18T19:57:31.925Z,77.0
2022-10-18T19:58:31.923Z,77.1
2022-10-18T19:59:32.216Z,77.0
2022-10-18T20:00:31.956Z,77.1
2022-10-18T20:01:32.164Z,77.2
2022-10-18T20:02:32.919Z,77.0
2022-10-18T20:03:31.966Z,77.0
2022-10-18T20:04:31.966Z,76.8
2022-10-18T20:05:31.980Z,77.0
2022-10-18T20:06:32.000Z,77.1
2022-10-18T20:07:31.984Z,76.8
2022-10-18T20:08:32.177Z,76.9
2022-10-18T20:09:31.991Z,77.1
2022-10-18T20:10:32.005Z,76.9
2022-10-18T20:11:32.007Z,77.0
2022-10-18T20:12:33.274Z,76.9
2022-10-18T20:13:32.032Z,76.9
2022-10-18T20:14:32.040Z,76.9
2022-10-18T20:15:32.047Z,77.1
2022-10-18T20:16:32.039Z,77.1
2022-10-18T20:17:32.062Z,77.3
2022-10-18T20:18:32.059Z,77.3
2022-10-18T20:19:32.064Z,77.5
2022-10-18T20:20:32.080Z,77.6
2022-10-18T20:21:32.088Z,77.9
2022-10-18T20:22:33.344Z,78.0
2022-10-18T20:23:32.086Z,78.1
2022-10-18T20:24:32.093Z,78.4
2022-10-18T20:25:32.114Z,78.6
2022-10-18T20:26:32.110Z,78.9
2022-10-18T20:27:33.065Z,79.0
2022-10-18T20:28:32.353Z,79.1
2022-10-18T20:29:32.144Z,79.3
2022-10-18T20:30:32.129Z,79.3
2022-10-18T20:31:32.142Z,79.4
2022-10-18T20:32:32.146Z,79.5
2022-10-18T20:33:32.154Z,79.5
2022-10-18T20:34:32.163Z,79.5
2022-10-18T20:35:32.169Z,79.4
2022-10-18T20:36:32.184Z,79.6
2022-10-18T20:37:33.318Z,79.6
2022-10-18T20:38:32.187Z,79.6
2022-10-18T20:39:32.194Z,79.7
2022-10-18T20:40:32.598Z,79.8
2022-10-18T20:41:32.221Z,79.9
2022-10-18T20:42:32.215Z,79.8
2022-10-18T20:43:32.223Z,79.9
2022-10-18T20:44:32.230Z,79.8
2022-10-18T20:45:32.238Z,79.9
2022-10-18T20:46:32.245Z,79.9
2022-10-18T20:47:33.156Z,80.1
2022-10-18T20:48:32.259Z,80.3
2022-10-18T20:49:32.263Z,80.6
2022-10-18T20:50:32.266Z,80.8
2022-10-18T20:51:32.276Z,80.8
2022-10-18T20:52:32.284Z,81.1
2022-10-18T20:53:32.303Z,81.3
2022-10-18T20:54:32.308Z,81.6
2022-10-18T20:55:32.314Z,81.6
2022-10-18T20:56:32.319Z,81.8
2022-10-18T20:57:36.823Z,82.0
2022-10-18T20:58:32.335Z,82.0
2022-10-18T20:59:32.336Z,82.4
2022-10-18T21:00:32.344Z,82.3
2022-10-18T21:01:32.596Z,82.4
2022-10-18T21:02:32.354Z,82.6
2022-10-18T21:03:32.368Z,82.7
2022-10-18T21:04:32.382Z,82.6
2022-10-18T21:05:32.375Z,82.7
2022-10-18T21:06:32.377Z,82.7
2022-10-18T21:07:33.144Z,82.7
2022-10-18T21:08:32.403Z,82.7
2022-10-18T21:09:32.438Z,82.9
2022-10-18T21:10:32.421Z,83.2
2022-10-18T21:11:32.420Z,83.1
2022-10-18T21:12:35.660Z,83.2
2022-10-18T21:13:32.441Z,83.2
2022-10-18T21:14:32.446Z,83.2
2022-10-18T21:15:32.448Z,83.2
2022-10-18T21:16:32.486Z,83.3
2022-10-18T21:17:32.991Z,83.4
2022-10-18T21:18:32.473Z,83.5
2022-10-18T21:19:32.485Z,83.4
2022-10-18T21:20:32.491Z,83.4
2022-10-18T21:21:32.508Z,83.6
2022-10-18T21:22:33.479Z,83.5
2022-10-18T21:23:32.523Z,83.6
2022-10-18T21:24:32.524Z,83.4
2022-10-18T21:25:32.540Z,83.3
2022-10-18T21:26:32.543Z,83.1
2022-10-18T21:27:32.556Z,83.0
2022-10-18T21:28:32.684Z,83.0
2022-10-18T21:29:32.560Z,82.9
2022-10-18T21:30:32.571Z,82.9
2022-10-18T21:31:32.579Z,82.9
2022-10-18T21:32:33.450Z,82.9
2022-10-18T21:33:32.598Z,82.8
2022-10-18T21:34:32.599Z,82.8
2022-10-18T21:35:32.606Z,82.7
2022-10-18T21:36:32.613Z,82.6
2022-10-18T21:37:32.622Z,82.6
2022-10-18T21:38:32.633Z,82.8
2022-10-18T21:39:32.656Z,82.9
2022-10-18T21:40:32.655Z,82.9
2022-10-18T21:41:32.663Z,83.1
2022-10-18T21:42:33.874Z,83.1
2022-10-18T21:43:32.682Z,83.2
2022-10-18T21:44:32.680Z,83.3
2022-10-18T21:45:32.694Z,83.4
2022-10-18T21:46:32.711Z,83.4
2022-10-18T21:47:32.756Z,83.3
2022-10-18T21:48:32.721Z,83.2
2022-10-18T21:49:32.721Z,83.2
2022-10-18T21:50:32.732Z,83.1
2022-10-18T21:51:32.755Z,82.9
2022-10-18T21:52:33.813Z,82.8
2022-10-18T21:53:32.756Z,82.8
2022-10-18T21:54:32.767Z,82.7
2022-10-18T21:55:32.771Z,82.6
2022-10-18T21:56:32.800Z,82.2
2022-10-18T21:57:33.225Z,82.3
2022-10-18T21:58:32.794Z,82.0
2022-10-18T21:59:32.808Z,82.2
2022-10-18T22:00:32.818Z,82.0
2022-10-18T22:01:33.142Z,82.1
2022-10-18T22:02:33.982Z,82.1
2022-10-18T22:03:32.833Z,82.2
2022-10-18T22:04:32.842Z,82.1
2022-10-18T22:05:32.852Z,82.1
2022-10-18T22:06:32.956Z,82.0
2022-10-18T22:07:33.999Z,81.7
2022-10-18T22:08:32.878Z,81.4
2022-10-18T22:09:32.883Z,81.2
2022-10-18T22:10:32.887Z,81.2
2022-10-18T22:11:32.900Z,80.8
2022-10-18T22:12:32.900Z,80.9
2022-10-18T22:13:32.908Z,80.4
2022-10-18T22:14:32.907Z,80.8
2022-10-18T22:15:33.045Z,80.7
2022-10-18T22:16:32.925Z,80.7
2022-10-18T22:17:33.898Z,80.3
2022-10-18T22:18:32.943Z,80.5
2022-10-18T22:19:32.954Z,81.2
2022-10-18T22:20:32.965Z,81.6
2022-10-18T22:21:33.050Z,81.8
2022-10-18T22:22:32.973Z,82.1
2022-10-18T22:23:32.988Z,82.2
2022-10-18T22:24:33.229Z,82.4
2022-10-18T22:25:32.995Z,82.4
2022-10-18T22:26:33.003Z,82.6
2022-10-18T22:27:34.349Z,82.8
2022-10-18T22:28:33.158Z,82.8
2022-10-18T22:29:33.036Z,83.3
2022-10-18T22:30:33.035Z,84.5
2022-10-18T22:31:33.051Z,85.3
2022-10-18T22:32:33.052Z,85.9
2022-10-18T22:33:33.210Z,85.8
2022-10-18T22:34:33.073Z,86.2
2022-10-18T22:35:33.075Z,86.6
2022-10-18T22:36:33.083Z,86.8
2022-10-18T22:37:34.178Z,87.1
2022-10-18T22:38:33.101Z,87.2
2022-10-18T22:39:33.107Z,87.2
2022-10-18T22:40:33.122Z,87.2
2022-10-18T22:41:33.127Z,87.3
2022-10-18T22:43:33.140Z,87.5
2022-10-18T22:44:33.153Z,87.7
2022-10-18T22:45:33.156Z,87.6
2022-10-18T22:46:33.181Z,87.6
2022-10-18T22:47:34.371Z,87.5
2022-10-18T22:48:33.189Z,87.6
2022-10-18T22:49:33.185Z,87.7
2022-10-18T22:50:33.227Z,87.9
2022-10-18T22:51:33.204Z,87.9
2022-10-18T22:52:34.129Z,87.9
2022-10-18T22:53:33.221Z,87.8
2022-10-18T22:54:33.228Z,87.7
2022-10-18T22:55:33.237Z,87.8
2022-10-18T22:56:33.238Z,87.7
2022-10-18T22:57:33.284Z,87.6
2022-10-18T22:58:33.270Z,87.5
2022-10-18T22:59:33.273Z,87.3
2022-10-18T23:00:33.791Z,87.0
2022-10-18T23:01:33.279Z,87.3
2022-10-18T23:02:34.280Z,87.2
2022-10-18T23:03:33.299Z,87.8
2022-10-18T23:04:33.309Z,87.6
2022-10-18T23:05:33.320Z,88.0
2022-10-18T23:06:33.318Z,88.2
2022-10-18T23:07:33.361Z,88.4
2022-10-18T23:08:33.356Z,88.7
2022-10-18T23:09:33.478Z,88.9
2022-10-18T23:10:33.360Z,89.0
2022-10-18T23:11:33.361Z,89.0
2022-10-18T23:12:34.341Z,89.0
2022-10-18T23:13:39.807Z,89.1
2022-10-18T23:14:33.390Z,89.0
2022-10-18T23:15:33.884Z,88.9
2022-10-18T23:16:33.404Z,88.7
2022-10-18T23:17:34.177Z,88.6
2022-10-18T23:18:33.803Z,88.7
2022-10-18T23:19:33.435Z,88.8
2022-10-18T23:20:33.440Z,88.8
2022-10-18T23:21:33.444Z,88.9
2022-10-18T23:22:34.305Z,89.0
2022-10-18T23:23:33.466Z,88.9
2022-10-18T23:24:34.043Z,89.0
2022-10-18T23:25:33.481Z,89.2
2022-10-18T23:26:33.496Z,89.3
2022-10-18T23:27:33.681Z,89.5
2022-10-18T23:28:33.692Z,89.8
2022-10-18T23:29:33.508Z,89.9
2022-10-18T23:30:33.512Z,90.2
2022-10-18T23:31:33.516Z,90.3
2022-10-18T23:32:34.343Z,90.3
2022-10-18T23:33:33.535Z,90.1
2022-10-18T23:34:33.546Z,89.9
2022-10-18T23:35:33.551Z,89.8
2022-10-18T23:36:33.989Z,89.7
2022-10-18T23:37:34.525Z,89.6
2022-10-18T23:38:33.585Z,89.6
2022-10-18T23:39:33.594Z,89.7
2022-10-18T23:40:33.611Z,89.8
2022-10-18T23:41:33.610Z,89.8
2022-10-18T23:42:33.624Z,89.8
2022-10-18T23:43:33.624Z,89.9
2022-10-18T23:44:33.630Z,89.9
2022-10-18T23:45:33.713Z,89.8
2022-10-18T23:46:33.643Z,89.7
2022-10-18T23:47:34.762Z,89.6
2022-10-18T23:48:33.657Z,89.4
2022-10-18T23:49:33.714Z,89.4
2022-10-18T23:50:33.673Z,89.3
2022-10-18T23:51:33.679Z,89.2
2022-10-18T23:52:33.698Z,89.1
2022-10-18T23:53:33.692Z,89.0
2022-10-18T23:54:33.878Z,89.0
2022-10-18T23:55:33.716Z,89.0
2022-10-18T23:56:33.720Z,89.0
2022-10-18T23:57:34.922Z,88.9
2022-10-18T23:58:33.730Z,88.9
2022-10-18T23:59:33.740Z,88.8
